createdAt,value
2019-04-16T00:03:24.109Z,4
2019-04-16T00:08:28.534Z,3.9
2019-04-16T00:13:24.028Z,3.9
2019-04-16T00:18:24.042Z,4.1
2019-04-16T00:23:28.516Z,3.9
2019-04-16T00:28:24.017Z,4.2
2019-04-16T00:33:24.005Z,4.2
2019-04-16T00:38:24.037Z,4.2
2019-04-16T00:43:24.067Z,4.5
2019-04-16T00:48:24.011Z,4.4
2019-04-16T00:53:24.001Z,4.3
2019-04-16T00:58:23.982Z,4.3
2019-04-16T01:03:24.036Z,4.4
2019-04-16T01:08:23.992Z,4.4
2019-04-16T01:13:25.392Z,4.5
2019-04-16T01:18:23.964Z,4.5
2019-04-16T01:23:23.997Z,4.6
2019-04-16T01:28:24.035Z,4.7
2019-04-16T01:33:23.963Z,4.8
2019-04-16T01:49:02.445Z,4.9
2019-04-16T01:54:02.815Z,5.1
2019-04-16T01:59:06.479Z,5.1
2019-04-16T02:04:02.349Z,5.1
2019-04-16T02:09:03.814Z,5.2
2019-04-16T02:14:02.328Z,5.3
2019-04-16T02:19:03.007Z,5.3
2019-04-16T02:24:02.329Z,5.4
2019-04-16T02:29:02.342Z,5.4
2019-04-16T02:34:02.881Z,5.6
2019-04-16T02:39:02.396Z,5.5
2019-04-16T02:44:02.862Z,5.5
2019-04-16T02:49:02.459Z,5.6
2019-04-16T02:54:02.460Z,5.6
2019-04-16T02:59:14.256Z,5.6
2019-04-16T03:04:02.282Z,5.6
2019-04-16T03:09:02.288Z,5.6
2019-04-16T03:14:02.334Z,5.6
2019-04-16T04:41:29.016Z,6.8
2019-04-16T04:46:28.997Z,7
2019-04-16T04:51:28.925Z,7
2019-04-16T04:56:28.979Z,7
2019-04-16T05:01:28.966Z,7.1
2019-04-16T05:06:28.944Z,7.1
2019-04-16T05:11:28.969Z,7.1
2019-04-16T05:16:35.248Z,7.3
2019-04-16T05:21:28.891Z,7.3
2019-04-16T05:26:28.996Z,7.4
2019-04-16T05:31:31.408Z,7.2
2019-04-16T05:36:28.922Z,7.2
2019-04-16T05:41:28.938Z,7.4
2019-04-16T05:46:28.938Z,7.3
2019-04-16T05:51:32.300Z,7.4
2019-04-16T05:56:29.636Z,7.5
2019-04-16T06:01:29.618Z,7.4
2019-04-16T06:06:32.645Z,7.5
2019-04-16T06:11:36.873Z,7.6
2019-04-16T06:16:31.392Z,7.6
2019-04-16T06:21:30.363Z,7.6
2019-04-16T06:26:30.354Z,7.6
2019-04-16T06:31:30.313Z,7.7
2019-04-16T06:36:30.337Z,7.8
2019-04-16T06:41:48.666Z,7.9
2019-04-16T06:46:30.335Z,8.1
2019-04-16T06:51:32.110Z,7.9
2019-04-16T06:56:30.373Z,8
2019-04-16T07:01:30.391Z,7.9
2019-04-16T07:06:33.345Z,8.1
2019-04-16T07:11:30.313Z,8.2
2019-04-16T07:21:30.492Z,8.2
2019-04-16T07:26:32.391Z,8.1
2019-04-16T07:31:35.707Z,8.2
2019-04-16T07:36:31.094Z,8.2
2019-04-16T07:41:31.087Z,8.2
2019-04-16T07:46:31.076Z,8.2
2019-04-16T07:51:36.889Z,8.4
2019-04-16T07:56:31.125Z,8.5
2019-04-16T08:01:31.147Z,8.3
2019-04-16T08:06:32.085Z,8.4
2019-04-16T08:11:32.063Z,8.4
2019-04-16T08:21:32.842Z,8.6
2019-04-16T08:26:32.802Z,8.6
2019-04-16T08:31:33.550Z,8.6
2019-04-16T08:36:32.893Z,8.6
2019-04-16T08:41:32.811Z,8.7
2019-04-16T08:46:32.817Z,8.9
2019-04-16T15:17:03.875Z,8.9
2019-04-16T15:22:15.040Z,8.9
2019-04-16T15:27:13.639Z,9
2019-04-16T15:32:13.699Z,8.9
2019-04-16T15:37:13.713Z,8.9
2019-04-16T15:42:17.908Z,8.9
2019-04-16T15:47:15.241Z,8.9
2019-04-16T15:52:13.781Z,8.8
2019-04-16T15:57:13.611Z,9
2019-04-16T16:07:18.447Z,8.9
2019-04-16T16:12:14.307Z,8.9
2019-04-16T16:17:14.336Z,8.8
2019-04-16T16:22:14.361Z,8.9
2019-04-16T16:27:14.392Z,8.8
2019-04-16T16:32:14.360Z,8.8
2019-04-16T16:37:14.367Z,8.8
2019-04-16T16:42:19.528Z,8.7
2019-04-16T16:47:19.527Z,8.9
2019-04-16T16:52:19.573Z,8.8
2019-04-16T16:57:19.524Z,8.9
2019-04-16T17:02:19.585Z,8.9
2019-04-16T17:07:19.507Z,8.9
2019-04-16T17:12:20.630Z,8.9
2019-04-16T17:17:21.430Z,9
2019-04-16T17:22:21.402Z,8.9
2019-04-16T17:27:21.393Z,8.9
2019-04-16T17:30:54.877Z,8.9
2019-04-16T17:35:52.966Z,9
2019-04-16T17:41:00.464Z,9.1
2019-04-16T17:45:55.317Z,9.1
2019-04-16T17:47:33.759Z,9.1
2019-04-16T17:52:27.972Z,9
2019-04-16T17:59:08.551Z,9
2019-04-16T18:04:11.770Z,9.1
2019-04-16T18:09:08.468Z,9.1
2019-04-16T18:14:11.974Z,9.1
2019-04-16T18:19:09.512Z,9
2019-04-16T18:24:09.185Z,9.1
2019-04-16T18:33:15.291Z,9
2019-04-16T18:50:38.384Z,9.1
2019-04-16T19:34:30.541Z,9.1
2019-04-16T19:39:30.501Z,9.1
2019-04-16T19:44:40.685Z,9.1
2019-04-16T19:49:30.536Z,9.1
2019-04-16T19:54:32.075Z,9
2019-04-16T19:59:30.497Z,9
2019-04-16T20:08:04.748Z,9
2019-04-16T20:13:05.442Z,8.9
2019-04-16T20:18:07.473Z,9
2019-04-16T20:23:05.217Z,9.1
2019-04-16T20:28:16.535Z,8.9
2019-04-16T20:33:05.293Z,9.1
2019-04-16T20:38:05.229Z,9
2019-04-16T20:43:07.150Z,8.9
2019-04-16T20:48:05.415Z,9
2019-04-16T20:53:08.793Z,9
2019-04-16T20:58:05.159Z,8.9
2019-04-16T21:03:22.495Z,8.9
2019-04-16T21:08:05.094Z,8.9
2019-04-16T21:13:05.273Z,8.8
2019-04-16T21:18:15.525Z,8.8
2019-04-16T21:23:05.846Z,8.7
2019-04-16T21:28:06.345Z,8.8
2019-04-16T21:33:06.201Z,8.6
2019-04-16T21:38:06.305Z,8.6
2019-04-16T21:43:09.083Z,8.6
2019-04-16T21:48:05.820Z,8.6
2019-04-16T21:53:05.869Z,8.5
2019-04-16T21:58:05.845Z,8.6
2019-04-16T22:03:11.164Z,8.4
2019-04-16T22:08:05.887Z,8.4
2019-04-16T22:13:06.269Z,8.4
2019-04-16T22:18:10.223Z,8.4
2019-04-16T22:23:10.250Z,8.4
2019-04-16T22:28:13.344Z,8.5
2019-04-16T22:33:07.833Z,8.4
2019-04-16T22:38:07.103Z,8.4
2019-04-16T22:43:09.301Z,8.6
2019-04-16T22:48:05.779Z,8.5
2019-04-16T22:53:05.831Z,8.5
2019-04-16T22:58:07.776Z,8.6
2019-04-16T23:03:09.928Z,8.4
2019-04-16T23:08:13.217Z,8.4
2019-04-16T23:13:05.735Z,8.3
2019-04-16T23:18:05.718Z,8.3
2019-04-16T23:23:05.774Z,8.4
2019-04-16T23:28:11.958Z,8.3
2019-04-16T23:33:05.738Z,8.4
2019-04-16T23:43:06.213Z,8.4
2019-04-16T23:48:06.429Z,8.4
2019-04-16T23:53:09.647Z,8.4
2019-04-16T23:58:06.651Z,8.4
